Time;durP1;ratioP1;P1;durP2;ratioP2;P2;SDS_P1;SDS_P2;PMS_P1;PMS_P2;Temp;Humidity;BMP_temperature;BMP_pressure;BME280_temperature;BME280_humidity;BME280_pressure;Samples;Min_cycle;Max_cycle;Signal;HPM_P1;HPM_P2
2023/07/07 00:00:24;;;;;;;5.72;4.63;;;;;;;13.87;75.37;101781.53;5066418;28;20587;-76
2023/07/07 00:02:51;;;;;;;8.35;4.72;;;;;;;13.87;75.47;101784.19;5075514;28;20044;-76
2023/07/07 00:05:19;;;;;;;8.15;4.85;;;;;;;13.82;75.38;101779.91;5064366;28;20585;-77
2023/07/07 00:07:48;;;;;;;7.30;4.65;;;;;;;13.81;75.41;101780.81;5067592;28;20103;-76
2023/07/07 00:10:17;;;;;;;7.38;4.47;;;;;;;13.81;75.85;101783.47;5063614;28;20107;-75
2023/07/07 00:12:45;;;;;;;9.35;4.65;;;;;;;13.80;75.99;101786.13;5067915;28;20044;-76
2023/07/07 00:15:14;;;;;;;6.82;4.50;;;;;;;13.79;76.14;101787.06;5065972;28;20092;-76
2023/07/07 00:17:41;;;;;;;5.97;4.60;;;;;;;13.78;76.04;101783.53;5067402;28;20049;-76
2023/07/07 00:20:11;;;;;;;8.35;4.50;;;;;;;13.79;76.06;101790.59;5071992;28;20052;-76
2023/07/07 00:22:39;;;;;;;8.13;5.00;;;;;;;13.80;76.35;101789.69;5064377;28;20044;-76
2023/07/07 00:25:08;;;;;;;5.85;4.78;;;;;;;13.82;76.41;101785.22;5063967;28;20068;-75
2023/07/07 00:27:37;;;;;;;8.10;5.20;;;;;;;13.85;76.38;101788.66;5060499;28;20077;-76
2023/07/07 00:30:05;;;;;;;6.50;4.70;;;;;;;13.88;76.57;101792.13;5063823;28;20088;-74
2023/07/07 00:32:32;;;;;;;10.13;4.93;;;;;;;13.87;76.43;101793.03;5067633;28;20037;-74
2023/07/07 00:35:00;;;;;;;7.55;4.65;;;;;;;13.87;76.34;101787.72;5060637;28;20067;-73
2023/07/07 00:37:27;;;;;;;7.68;4.70;;;;;;;13.88;76.92;101785.94;5049189;28;20045;-73
2023/07/07 00:39:54;;;;;;;7.10;4.53;;;;;;;13.83;77.12;101788.72;5065115;28;20107;-73
2023/07/07 00:42:23;;;;;;;6.70;4.50;;;;;;;13.78;77.11;101786.19;5064880;28;20040;-74
2023/07/07 00:45:18;;;;;;;5.82;4.13;;;;;;;13.78;77.03;101790.63;5064574;28;20048;-74
2023/07/07 00:47:59;;;;;;;;;;;;;;;13.76;76.46;101792.47;5062514;28;20122;-74
2023/07/07 00:50:36;;;;;;;11.43;4.70;;;;;;;13.76;76.67;101792.47;5062079;28;19929;-73
2023/07/07 00:53:04;;;;;;;5.78;4.50;;;;;;;13.73;76.71;101784.59;5063178;28;20059;-74
2023/07/07 00:55:41;;;;;;;7.50;4.60;;;;;;;13.69;76.75;101782.94;5064586;28;20471;-73
2023/07/07 00:58:16;;;;;;;6.82;4.18;;;;;;;13.67;76.81;101793.56;5063708;28;20522;-73
2023/07/07 01:00:52;;;;;;;8.05;4.60;;;;;;;13.65;76.98;101788.34;5069625;28;20049;-73
2023/07/07 01:03:32;;;;;;;7.20;3.95;;;;;;;13.65;77.08;101782.16;5062836;28;20589;-74
2023/07/07 01:06:02;;;;;;;8.82;4.18;;;;;;;13.62;77.03;101790.22;5065194;28;20041;-75
2023/07/07 01:08:29;;;;;;;5.35;4.10;;;;;;;13.59;77.13;101785.84;5060371;28;20155;-75
2023/07/07 01:10:56;;;;;;;7.75;4.32;;;;;;;13.55;77.12;101786.84;5063523;28;20044;-75
2023/07/07 01:13:26;;;;;;;7.38;4.18;;;;;;;13.54;76.86;101787.75;5062968;28;20068;-75
2023/07/07 01:16:13;;;;;;;5.15;3.85;;;;;;;13.51;77.21;101779.88;5064227;28;20053;-75
2023/07/07 01:19:48;;;;;;;5.20;4.05;;;;;;;13.51;77.21;101783.44;5062794;28;20051;-75
2023/07/07 01:23:06;;;;;;;6.95;3.75;;;;;;;13.51;77.09;101796.66;4961523;28;20130;-75
2023/07/07 01:26:15;;;;;;;5.15;3.42;;;;;;;13.51;76.98;101801.97;4948999;28;20118;-75
2023/07/07 01:29:14;;;;;;;5.88;3.65;;;;;;;13.49;76.42;101795.84;5062279;28;20057;-76
2023/07/07 01:31:54;;;;;;;5.80;3.58;;;;;;;13.47;76.61;101795.00;5066116;28;20552;-76
2023/07/07 01:34:22;;;;;;;6.75;3.50;;;;;;;13.44;76.89;101792.44;5063450;28;20045;-76
2023/07/07 01:36:50;;;;;;;5.40;3.80;;;;;;;13.40;76.96;101789.91;5064730;28;20045;-76
2023/07/07 01:39:17;;;;;;;5.38;3.92;;;;;;;13.36;77.25;101791.75;5061901;28;20412;-76
2023/07/07 01:41:57;;;;;;;8.50;3.65;;;;;;;13.32;77.17;101798.03;5064466;28;20052;-76
2023/07/07 01:44:44;;;;;;;8.00;3.20;;;;;;;13.24;77.90;101792.06;5062003;28;20068;-76
2023/07/07 01:47:17;;;;;;;5.05;3.47;;;;;;;13.14;77.84;101794.09;5062905;28;20092;-76
2023/07/07 01:50:05;;;;;;;5.03;3.60;;;;;;;13.08;78.00;101787.19;5060204;28;20045;-76
2023/07/07 01:52:48;;;;;;;5.93;3.50;;;;;;;13.02;78.38;101785.56;5061807;28;20053;-76
2023/07/07 01:55:29;;;;;;;6.45;3.20;;;;;;;13.00;78.76;101782.06;5063242;28;20064;-77
2023/07/07 01:58:02;;;;;;;5.15;3.28;;;;;;;12.97;79.20;101784.78;5064400;28;20120;-76
2023/07/07 02:00:31;;;;;;;6.40;3.35;;;;;;;12.90;79.41;101780.56;5062409;28;20521;-75
2023/07/07 02:03:00;;;;;;;8.20;3.90;;;;;;;12.86;79.56;101781.56;5053380;28;20045;-75
2023/07/07 02:05:28;;;;;;;6.10;3.50;;;;;;;12.79;79.84;101779.97;5060366;28;21522;-75
2023/07/07 02:07:58;;;;;;;6.80;3.70;;;;;;;12.74;80.31;101785.38;5059980;28;20049;-75
2023/07/07 02:10:25;;;;;;;7.90;3.90;;;;;;;12.70;80.57;101789.00;5064628;28;20514;-75
2023/07/07 02:12:52;;;;;;;4.38;3.70;;;;;;;12.65;80.80;101782.94;5065614;28;20041;-75
2023/07/07 02:15:19;;;;;;;7.10;4.15;;;;;;;12.61;80.93;101782.16;5066416;28;20116;-77
2023/07/07 02:17:48;;;;;;;4.78;4.05;;;;;;;12.60;81.07;101787.50;5075803;28;20041;-75
2023/07/07 02:20:16;;;;;;;7.22;4.03;;;;;;;12.56;81.33;101784.06;5065510;28;20045;-75
2023/07/07 02:22:44;;;;;;;6.90;4.40;;;;;;;12.51;81.45;101780.63;5065594;28;20052;-75
2023/07/07 02:25:11;;;;;;;6.43;4.07;;;;;;;12.43;81.55;101781.69;5066716;28;20532;-75
2023/07/07 02:27:38;;;;;;;7.07;4.28;;;;;;;12.41;81.85;101790.56;5066112;28;20130;-74
2023/07/07 02:30:06;;;;;;;7.40;4.72;;;;;;;12.35;82.26;101781.00;5066147;28;20547;-75
2023/07/07 02:32:33;;;;;;;9.60;4.75;;;;;;;12.29;82.87;101791.69;5068485;28;20042;-75
2023/07/07 02:35:03;;;;;;;7.60;4.50;;;;;;;12.26;82.83;101787.34;5067879;28;20279;-75
2023/07/07 02:37:33;;;;;;;8.25;4.90;;;;;;;12.24;82.78;101788.31;5054916;28;20048;-75
2023/07/07 02:40:00;;;;;;;8.23;4.78;;;;;;;12.22;82.84;101788.31;5065637;28;20723;-75
2023/07/07 02:42:27;;;;;;;6.53;4.30;;;;;;;12.22;82.88;101787.47;5063612;28;20041;-75
2023/07/07 02:44:54;;;;;;;5.75;4.40;;;;;;;12.22;83.32;101787.47;5064746;28;20041;-75
2023/07/07 02:47:22;;;;;;;7.03;4.53;;;;;;;12.22;83.18;101790.09;5062880;28;20106;-75
2023/07/07 02:49:49;;;;;;;7.78;4.88;;;;;;;12.21;83.54;101791.00;5066344;28;20033;-74
2023/07/07 02:52:16;;;;;;;10.07;5.20;;;;;;;12.18;83.58;101791.94;5049889;28;20046;-73
2023/07/07 02:54:43;;;;;;;8.25;5.15;;;;;;;12.15;83.87;101789.34;5065992;28;20077;-74
2023/07/07 02:57:10;;;;;;;8.68;5.10;;;;;;;12.16;83.84;101790.25;5065949;28;20045;-74
2023/07/07 02:59:38;;;;;;;5.60;4.43;;;;;;;12.16;83.94;101801.69;5066553;28;20148;-74
2023/07/07 03:02:06;;;;;;;7.30;5.05;;;;;;;12.15;83.91;101799.94;5065561;28;20045;-74
2023/07/07 03:04:33;;;;;;;6.80;5.03;;;;;;;12.11;84.02;101799.13;5065163;28;20106;-74
2023/07/07 03:07:01;;;;;;;11.23;5.90;;;;;;;12.09;84.52;101797.44;5065972;28;20520;-74
2023/07/07 03:09:28;;;;;;;10.43;5.50;;;;;;;12.05;84.98;101803.69;5066827;28;20049;-74
2023/07/07 03:11:57;;;;;;;7.68;6.10;;;;;;;11.98;85.56;101796.78;5066209;28;20541;-74
2023/07/07 03:14:26;;;;;;;7.95;5.35;;;;;;;11.91;85.85;101802.16;5065088;28;20049;-75
2023/07/07 03:16:59;;;;;;;8.88;5.15;;;;;;;11.88;86.14;101812.78;5082412;28;20084;-75
2023/07/07 03:19:34;;;;;;;7.82;5.13;;;;;;;11.88;86.07;101812.78;5062407;28;20395;-75
2023/07/07 03:22:10;;;;;;;8.15;4.88;;;;;;;11.89;85.84;101811.91;5067935;28;20529;-75
2023/07/07 03:24:43;;;;;;;6.28;4.75;;;;;;;11.89;85.75;101814.53;5067072;28;20051;-74
2023/07/07 03:27:23;;;;;;;8.63;5.13;;;;;;;11.88;85.40;101807.50;5061484;28;20124;-75
2023/07/07 03:29:50;;;;;;;7.32;4.78;;;;;;;11.86;85.50;101811.94;5061954;28;20290;-75
2023/07/07 03:32:20;;;;;;;9.90;5.03;;;;;;;11.89;85.42;101811.00;5066676;28;20531;-75
2023/07/07 03:34:49;;;;;;;7.88;4.82;;;;;;;11.93;85.60;101816.19;5063629;28;20084;-75
2023/07/07 03:37:19;;;;;;;5.80;5.20;;;;;;;11.93;85.62;101818.00;5061144;28;20049;-74
2023/07/07 03:39:48;;;;;;;6.93;5.30;;;;;;;11.92;85.00;101814.47;5060465;28;20041;-75
2023/07/07 03:42:15;;;;;;;11.23;4.93;;;;;;;11.89;85.24;101817.19;5081014;28;20103;-75
2023/07/07 03:44:42;;;;;;;9.02;5.35;;;;;;;11.90;85.59;101816.28;5064471;28;20079;-75
2023/07/07 03:47:09;;;;;;;8.45;4.90;;;;;;;11.92;85.40;101825.03;5059566;28;20768;-75
2023/07/07 03:49:38;;;;;;;7.68;4.78;;;;;;;11.96;85.40;101809.97;5064586;28;20095;-75
2023/07/07 03:52:06;;;;;;;8.85;5.28;;;;;;;12.00;85.18;101819.63;5062967;28;20064;-75
2023/07/07 03:54:33;;;;;;;9.90;5.05;;;;;;;12.03;85.23;101819.56;5073476;28;20841;-75
2023/07/07 03:57:00;;;;;;;8.30;5.13;;;;;;;12.06;85.12;101821.28;5064005;28;20037;-76
2023/07/07 03:59:27;;;;;;;9.82;5.40;;;;;;;12.19;84.20;101825.41;5063653;28;20044;-76
2023/07/07 04:01:54;;;;;;;6.35;5.30;;;;;;;12.30;83.89;101830.44;5065335;28;20045;-75
2023/07/07 04:04:21;;;;;;;8.18;5.05;;;;;;;12.46;83.49;101832.78;5062857;28;20052;-75
2023/07/07 04:06:49;;;;;;;8.00;4.28;;;;;;;12.56;83.36;101836.94;5064562;28;20041;-75
2023/07/07 04:09:16;;;;;;;7.45;4.78;;;;;;;12.51;83.36;101831.75;5058532;28;20520;-75
2023/07/07 04:11:43;;;;;;;9.13;5.20;;;;;;;12.48;83.49;101834.47;5051605;28;20041;-75
2023/07/07 04:14:10;;;;;;;5.65;4.30;;;;;;;12.45;83.53;101825.75;5062492;28;20748;-75
2023/07/07 04:16:37;;;;;;;5.63;4.45;;;;;;;12.47;83.58;101834.47;5062856;28;20067;-76
2023/07/07 04:19:05;;;;;;;6.82;4.25;;;;;;;12.51;83.66;101830.88;5079448;28;20500;-74
2023/07/07 04:21:34;;;;;;;9.48;4.90;;;;;;;12.52;83.52;101828.19;5062754;28;20033;-74
2023/07/07 04:24:03;;;;;;;6.18;4.60;;;;;;;12.54;83.22;101839.63;5065287;28;20568;-75
2023/07/07 04:26:31;;;;;;;5.35;4.60;;;;;;;12.57;83.10;101839.56;5065988;28;20424;-75
2023/07/07 04:29:00;;;;;;;6.72;4.20;;;;;;;12.61;83.03;101835.06;5064304;28;20129;-75
2023/07/07 04:31:30;;;;;;;6.30;4.45;;;;;;;12.66;83.57;101830.53;5065953;28;20040;-76
2023/07/07 04:33:58;;;;;;;7.18;4.32;;;;;;;12.77;83.29;101832.06;5064858;28;20042;-76
2023/07/07 04:36:25;;;;;;;7.70;4.28;;;;;;;12.85;83.30;101833.59;5064411;28;20519;-76
2023/07/07 04:38:52;;;;;;;6.97;4.88;;;;;;;12.97;83.18;101837.72;5061714;28;20564;-75
2023/07/07 04:41:22;;;;;;;7.32;4.40;;;;;;;13.12;82.45;101833.84;5062368;28;20045;-75
2023/07/07 04:43:53;;;;;;;9.15;5.00;;;;;;;13.51;81.97;101836.41;5063370;28;20072;-75
2023/07/07 04:46:26;;;;;;;5.30;4.30;;;;;;;13.70;81.48;101832.34;5063820;28;20045;-75
2023/07/07 04:48:54;;;;;;;6.95;4.35;;;;;;;13.77;81.15;101848.06;5065390;28;20045;-75
2023/07/07 04:51:22;;;;;;;6.68;4.32;;;;;;;13.90;81.39;101837.97;5064356;28;20053;-75
2023/07/07 04:53:50;;;;;;;7.70;4.32;;;;;;;14.14;81.09;101835.53;5063444;28;20044;-75
2023/07/07 04:56:21;;;;;;;7.63;4.18;;;;;;;14.33;81.07;101835.88;5064499;28;20048;-75
2023/07/07 04:58:51;;;;;;;7.07;3.55;;;;;;;14.51;80.18;101822.94;5066836;28;20049;-75
2023/07/07 05:01:22;;;;;;;6.50;4.15;;;;;;;14.58;79.99;101838.63;5063125;28;20144;-76
2023/07/07 05:04:00;;;;;;;5.65;4.18;;;;;;;14.72;79.87;101838.22;5056832;28;20143;-75
2023/07/07 05:06:32;;;;;;;6.35;4.20;;;;;;;14.80;79.42;101837.09;5060263;28;20123;-75
2023/07/07 05:09:01;;;;;;;7.68;4.30;;;;;;;14.87;78.91;101834.22;5063759;28;20085;-75
2023/07/07 05:11:31;;;;;;;9.15;4.60;;;;;;;14.95;78.76;101836.63;5058949;28;20468;-75
2023/07/07 05:14:01;;;;;;;6.72;4.45;;;;;;;15.01;78.65;101836.41;5062512;28;20037;-75
2023/07/07 05:16:37;;;;;;;7.55;4.18;;;;;;;15.16;78.60;101840.34;5061346;28;20049;-74
2023/07/07 05:19:06;;;;;;;6.95;4.10;;;;;;;15.55;78.23;101836.38;5065606;28;20057;-75
2023/07/07 05:21:33;;;;;;;7.32;3.95;;;;;;;16.43;76.84;101835.75;5066263;28;20041;-75
2023/07/07 05:24:01;;;;;;;7.22;4.30;;;;;;;18.92;69.85;101833.78;5066154;28;20101;-75
2023/07/07 05:26:28;;;;;;;5.72;3.72;;;;;;;21.37;62.47;101836.56;5058804;28;20042;-75
2023/07/07 05:29:04;;;;;;;12.15;4.47;;;;;;;23.02;57.19;101830.63;5048578;28;20045;-74
2023/07/07 05:31:32;;;;;;;5.70;3.40;;;;;;;24.29;53.49;101832.59;5057010;28;20045;-74
2023/07/07 05:33:59;;;;;;;6.97;3.40;;;;;;;25.81;48.50;101837.34;5052478;28;20065;-74
2023/07/07 05:36:26;;;;;;;8.38;3.58;;;;;;;27.09;44.10;101833.28;5044345;28;20045;-75
2023/07/07 05:38:54;;;;;;;7.05;3.33;;;;;;;28.09;42.18;101837.28;5043575;28;20108;-75
2023/07/07 05:41:22;;;;;;;7.45;3.72;;;;;;;28.99;40.22;101831.84;5055093;28;20037;-75
2023/07/07 05:43:49;;;;;;;6.07;3.50;;;;;;;29.83;38.61;101848.38;5049355;28;20237;-75
2023/07/07 05:46:18;;;;;;;5.00;3.40;;;;;;;30.65;36.75;101838.53;5048066;28;20045;-74
2023/07/07 05:48:46;;;;;;;7.93;3.25;;;;;;;31.45;35.60;101834.91;5045039;28;20344;-75
2023/07/07 05:51:17;;;;;;;6.53;3.63;;;;;;;32.20;34.00;101836.13;5045369;28;20498;-75
2023/07/07 05:53:44;;;;;;;6.55;3.35;;;;;;;32.83;32.53;101833.91;5048255;28;20555;-74
2023/07/07 05:56:23;;;;;;;9.02;3.92;;;;;;;33.35;31.72;101837.28;5044907;28;20042;-75
2023/07/07 05:58:53;;;;;;;6.07;3.13;;;;;;;33.87;30.18;101826.91;5048858;28;20037;-75
2023/07/07 06:01:21;;;;;;;4.90;3.15;;;;;;;34.24;29.66;101827.25;5057977;28;20041;-74
2023/07/07 06:03:48;;;;;;;5.35;3.25;;;;;;;34.52;28.95;101831.19;5058596;28;20472;-75
2023/07/07 06:06:15;;;;;;;5.03;3.03;;;;;;;34.88;28.29;101835.19;5058305;28;20043;-75
2023/07/07 06:08:43;;;;;;;9.32;3.30;;;;;;;35.16;27.29;101831.03;5057024;28;20266;-75
2023/07/07 06:11:10;;;;;;;5.75;2.78;;;;;;;35.24;27.21;101834.56;5059859;28;20048;-74
2023/07/07 06:13:37;;;;;;;5.78;3.10;;;;;;;35.38;26.94;101835.59;5056314;28;20050;-75
2023/07/07 06:16:06;;;;;;;11.90;3.42;;;;;;;35.55;26.72;101830.81;5062586;28;20040;-75
2023/07/07 06:18:34;;;;;;;5.55;3.22;;;;;;;35.66;26.13;101836.88;5067040;28;20061;-74
2023/07/07 06:21:01;;;;;;;7.10;3.00;;;;;;;35.22;26.30;101839.34;5063786;28;20057;-74
2023/07/07 06:23:31;;;;;;;6.75;3.25;;;;;;;33.34;28.34;101832.00;5060698;28;20053;-74
2023/07/07 06:25:58;;;;;;;5.97;3.38;;;;;;;30.57;31.10;101832.13;5064832;28;20480;-74
2023/07/07 06:28:26;;;;;;;6.63;3.28;;;;;;;28.05;34.31;101835.78;5075682;28;20091;-74
2023/07/07 06:30:54;;;;;;;7.10;3.33;;;;;;;26.20;37.48;101837.84;5071314;28;20037;-75
2023/07/07 06:33:22;;;;;;;6.97;3.47;;;;;;;24.90;40.07;101842.50;5074415;28;20053;-75
2023/07/07 06:35:50;;;;;;;9.95;3.75;;;;;;;23.91;42.35;101846.94;5066585;28;20040;-74
2023/07/07 06:38:17;;;;;;;5.05;3.25;;;;;;;23.18;43.79;101846.56;5079579;28;20055;-74
2023/07/07 06:40:48;;;;;;;7.03;3.67;;;;;;;22.64;45.74;101842.13;5078737;28;20541;-74
2023/07/07 06:43:18;;;;;;;9.05;3.97;;;;;;;22.21;46.76;101853.78;5070917;28;20049;-74
2023/07/07 06:45:55;;;;;;;8.90;4.05;;;;;;;21.82;48.13;101848.16;5075610;28;20040;-74
2023/07/07 06:48:22;;;;;;;7.50;4.05;;;;;;;21.55;49.18;101848.00;5080113;28;20045;-74
2023/07/07 06:50:50;;;;;;;10.07;3.85;;;;;;;21.36;49.98;101853.63;5068186;28;20057;-75
2023/07/07 06:53:17;;;;;;;6.55;3.67;;;;;;;21.23;51.02;101849.00;5082994;28;20141;-75
2023/07/07 06:55:45;;;;;;;8.43;4.07;;;;;;;21.16;51.64;101852.13;5075571;28;20037;-75
2023/07/07 06:58:13;;;;;;;6.20;4.07;;;;;;;21.12;51.99;101848.75;5078499;28;20080;-75
2023/07/07 07:00:43;;;;;;;9.32;4.22;;;;;;;21.12;52.23;101855.94;5058148;28;20593;-75
2023/07/07 07:03:12;;;;;;;11.50;4.38;;;;;;;21.14;52.55;101860.28;5073032;28;20133;-74
2023/07/07 07:05:40;;;;;;;7.13;3.60;;;;;;;21.16;52.31;101853.00;5080711;28;20592;-75
2023/07/07 07:08:07;;;;;;;7.68;3.80;;;;;;;21.20;52.52;101853.69;5082032;28;20119;-75
2023/07/07 07:10:34;;;;;;;8.52;3.83;;;;;;;21.22;52.57;101860.66;5087056;28;20488;-75
2023/07/07 07:13:01;;;;;;;8.35;4.10;;;;;;;21.27;52.81;101855.03;5072254;28;20090;-75
2023/07/07 07:15:28;;;;;;;9.13;4.32;;;;;;;21.34;52.53;101856.38;5082419;28;20041;-75
2023/07/07 07:17:55;;;;;;;6.75;3.80;;;;;;;21.41;53.28;101859.56;5069931;28;20045;-75
2023/07/07 07:20:22;;;;;;;9.60;3.95;;;;;;;21.46;53.63;101860.16;5064617;28;20041;-76
2023/07/07 07:22:50;;;;;;;8.48;3.47;;;;;;;21.55;53.39;101864.97;5063518;28;20091;-75
2023/07/07 07:25:17;;;;;;;9.38;3.75;;;;;;;21.64;52.58;101863.56;5074384;28;20123;-74
2023/07/07 07:27:44;;;;;;;6.28;3.35;;;;;;;21.76;52.80;101863.75;5079858;28;20091;-73
2023/07/07 07:30:14;;;;;;;5.60;3.17;;;;;;;21.83;51.72;101857.94;5078485;28;20045;-76
2023/07/07 07:32:41;;;;;;;5.38;3.30;;;;;;;21.85;49.98;101864.06;5067930;28;20053;-74
2023/07/07 07:35:11;;;;;;;4.53;3.05;;;;;;;21.91;51.21;101872.69;5085401;28;20045;-75
2023/07/07 07:37:38;;;;;;;5.57;2.75;;;;;;;21.99;50.81;101867.69;5075667;28;20044;-75
2023/07/07 07:40:07;;;;;;;7.60;2.88;;;;;;;22.06;50.79;101871.75;5063566;28;20040;-75
2023/07/07 07:42:34;;;;;;;5.28;2.90;;;;;;;22.16;51.09;101861.25;5069406;28;20037;-75
2023/07/07 07:45:02;;;;;;;4.68;2.47;;;;;;;22.29;51.10;101867.59;5069825;28;20076;-75
2023/07/07 07:47:29;;;;;;;5.35;2.95;;;;;;;22.41;50.52;101868.66;5075272;28;20137;-75
2023/07/07 07:49:56;;;;;;;6.63;2.65;;;;;;;22.53;50.84;101877.75;5074710;28;20114;-73
2023/07/07 07:52:23;;;;;;;5.60;2.58;;;;;;;22.63;50.58;101878.88;5063986;28;20640;-74
2023/07/07 07:54:50;;;;;;;7.28;3.15;;;;;;;22.74;50.82;101870.09;5067507;28;20049;-73
2023/07/07 07:57:17;;;;;;;6.75;3.15;;;;;;;22.85;51.04;101877.44;5078905;28;20045;-74
2023/07/07 07:59:44;;;;;;;8.18;2.80;;;;;;;22.96;49.78;101874.91;5069882;28;20041;-74
2023/07/07 08:02:12;;;;;;;5.75;2.85;;;;;;;23.06;48.90;101877.84;5067033;28;20064;-74
2023/07/07 08:04:39;;;;;;;5.55;2.65;;;;;;;23.11;49.41;101877.53;5066774;28;20062;-73
2023/07/07 08:07:06;;;;;;;4.88;1.83;;;;;;;23.21;48.62;101867.03;5070252;28;20110;-73
2023/07/07 08:09:34;;;;;;;4.30;2.10;;;;;;;23.32;47.64;101874.41;5075026;28;20469;-74
2023/07/07 08:12:03;;;;;;;3.90;2.03;;;;;;;23.41;46.59;101868.38;5075883;28;20039;-74
2023/07/07 08:14:32;;;;;;;3.97;2.17;;;;;;;23.52;47.42;101873.88;5066982;28;20056;-75
2023/07/07 08:17:08;;;;;;;4.43;2.03;;;;;;;23.64;46.50;101869.47;5085097;28;20044;-74
2023/07/07 08:19:39;;;;;;;5.35;2.05;;;;;;;23.75;46.01;101875.94;5062228;28;20120;-74
2023/07/07 08:22:17;;;;;;;4.88;1.98;;;;;;;23.89;46.26;101878.53;5070894;28;20107;-74
2023/07/07 08:24:57;;;;;;;4.47;2.03;;;;;;;24.01;45.27;101880.38;5078605;28;20558;-75
2023/07/07 08:27:26;;;;;;;5.00;1.83;;;;;;;24.12;44.03;101876.91;5080315;28;20045;-74
2023/07/07 08:29:57;;;;;;;5.15;1.77;;;;;;;24.16;44.21;101874.88;5066047;28;20498;-74
2023/07/07 08:32:24;;;;;;;4.35;1.90;;;;;;;24.27;44.67;101876.75;5083017;28;20045;-74
2023/07/07 08:34:54;;;;;;;4.05;1.90;;;;;;;24.41;45.12;101876.63;5070024;28;20547;-74
2023/07/07 08:37:27;;;;;;;5.18;1.92;;;;;;;24.55;43.81;101874.78;5081177;28;20535;-74
2023/07/07 08:39:54;;;;;;;5.70;1.80;;;;;;;24.60;43.14;101869.88;5076375;28;20050;-73
2023/07/07 08:42:40;;;;;;;6.25;2.10;;;;;;;24.71;43.15;101874.53;5072309;28;20326;-73
2023/07/07 08:45:17;;;;;;;10.55;2.70;;;;;;;24.81;43.49;101873.72;5055520;28;20075;-74
2023/07/07 08:48:02;;;;;;;4.95;2.05;;;;;;;24.95;42.59;101874.53;5076638;28;20049;-74
2023/07/07 08:50:39;;;;;;;4.03;1.90;;;;;;;25.09;42.65;101873.47;5080886;28;20122;-75
2023/07/07 08:53:49;;;;;;;7.95;1.88;;;;;;;25.21;42.13;101877.94;5058495;28;20048;-74
2023/07/07 08:56:44;;;;;;;3.47;1.50;;;;;;;25.31;41.53;101883.47;5070713;28;20055;-74
2023/07/07 08:59:33;;;;;;;3.85;1.73;;;;;;;25.38;40.65;101881.16;5056367;28;20048;-75
2023/07/07 09:02:25;;;;;;;3.92;1.52;;;;;;;25.48;41.58;101879.50;5070233;28;20493;-74
2023/07/07 09:05:13;;;;;;;4.72;1.90;;;;;;;25.60;41.17;101874.97;5068913;28;20060;-76
2023/07/07 09:07:59;;;;;;;4.90;1.55;;;;;;;25.71;40.28;101880.41;5078681;28;20436;-74
2023/07/07 09:11:04;;;;;;;4.32;1.50;;;;;;;25.74;39.62;101874.78;5078655;28;20064;-75
2023/07/07 09:13:37;;;;;;;4.80;1.30;;;;;;;25.81;39.08;101874.28;5063834;28;20075;-75
2023/07/07 09:16:25;;;;;;;5.95;1.80;;;;;;;25.88;38.31;101868.28;5075037;28;20120;-73
2023/07/07 09:19:10;;;;;;;6.35;1.80;;;;;;;26.02;39.24;101867.16;5083463;28;20041;-73
2023/07/07 09:21:54;;;;;;;3.38;1.20;;;;;;;26.23;37.16;101869.16;5074313;28;20476;-73
2023/07/07 09:24:44;;;;;;;3.08;1.65;;;;;;;26.26;36.72;101862.63;5083110;28;20084;-73
2023/07/07 09:27:27;;;;;;;2.65;1.45;;;;;;;26.26;37.20;101857.22;5054907;28;20041;-73
2023/07/07 09:30:28;;;;;;;3.27;1.53;;;;;;;26.33;36.52;101847.66;5075785;28;20055;-72
2023/07/07 09:32:55;;;;;;;3.10;1.60;;;;;;;26.42;36.43;101857.72;5035167;28;20127;-73
2023/07/07 09:35:31;;;;;;;5.32;1.70;;;;;;;26.55;36.45;101856.69;5080865;28;20476;-72
2023/07/07 09:38:41;;;;;;;3.45;1.63;;;;;;;26.71;36.20;101850.88;5078034;28;20044;-72
2023/07/07 09:41:45;;;;;;;2.75;1.50;;;;;;;26.82;35.16;101856.25;5052987;28;20427;-73
2023/07/07 09:44:53;;;;;;;5.82;1.50;;;;;;;26.91;36.02;101852.75;5079247;28;20505;-73
2023/07/07 09:48:20;;;;;;;3.92;1.60;;;;;;;27.00;35.83;101853.00;5056211;28;20159;-73
2023/07/07 09:50:58;;;;;;;4.05;1.60;;;;;;;27.11;36.62;101853.78;5045372;28;20518;-74
2023/07/07 09:53:35;;;;;;;3.25;1.40;;;;;;;27.19;34.22;101842.31;5060069;28;20496;-73
2023/07/07 09:56:23;;;;;;;3.90;1.60;;;;;;;27.25;34.98;101840.94;5064365;28;20061;-74
2023/07/07 09:59:06;;;;;;;3.42;1.45;;;;;;;27.28;34.54;101846.06;5067198;28;20353;-74
2023/07/07 10:01:39;;;;;;;8.40;1.95;;;;;;;27.36;34.88;101840.00;5071567;28;20123;-75
2023/07/07 10:04:16;;;;;;;3.25;1.42;;;;;;;27.48;33.51;101840.81;5073314;28;20083;-74
2023/07/07 10:06:55;;;;;;;4.15;1.92;;;;;;;27.53;34.53;101847.53;5076100;28;20040;-72
2023/07/07 10:09:24;;;;;;;4.15;2.00;;;;;;;27.62;34.42;101842.34;5069007;28;20044;-74
2023/07/07 10:11:51;;;;;;;6.25;1.73;;;;;;;27.69;33.39;101841.63;5075282;28;20131;-73
2023/07/07 10:14:24;;;;;;;3.35;1.40;;;;;;;27.76;32.45;101846.53;5070687;28;20120;-74
2023/07/07 10:17:09;;;;;;;4.50;1.23;;;;;;;27.86;32.44;101836.59;5074473;28;20480;-73
2023/07/07 10:19:42;;;;;;;5.95;1.75;;;;;;;27.96;31.58;101837.50;5083650;28;20162;-74
2023/07/07 10:22:15;;;;;;;3.50;1.45;;;;;;;27.99;30.99;101831.78;5073647;28;20041;-73
2023/07/07 10:24:43;;;;;;;2.88;1.30;;;;;;;28.01;31.83;101835.22;5065203;28;20125;-74
2023/07/07 10:27:15;;;;;;;5.38;1.60;;;;;;;28.12;32.00;101836.13;5074073;28;20044;-73
2023/07/07 10:29:44;;;;;;;9.68;1.63;;;;;;;28.20;31.61;101831.75;5064395;28;20441;-74
2023/07/07 10:32:21;;;;;;;4.05;1.67;;;;;;;28.27;32.06;101831.19;5064908;28;20084;-73
2023/07/07 10:34:53;;;;;;;8.77;1.67;;;;;;;28.33;32.32;101823.34;5059204;28;20048;-74
2023/07/07 10:37:24;;;;;;;5.05;1.80;;;;;;;28.40;30.91;101818.22;5073608;28;20636;-73
2023/07/07 10:39:56;;;;;;;4.45;1.65;;;;;;;28.39;30.63;101823.81;5069955;28;20040;-74
2023/07/07 10:42:26;;;;;;;2.70;1.40;;;;;;;28.48;30.11;101826.50;5056300;28;20038;-74
2023/07/07 10:44:59;;;;;;;4.57;1.70;;;;;;;28.56;30.23;101820.38;5070871;28;20044;-75
2023/07/07 10:47:33;;;;;;;5.38;1.58;;;;;;;28.66;29.71;101825.81;5077955;28;20505;-74
2023/07/07 10:50:10;;;;;;;4.57;1.63;;;;;;;28.71;29.57;101822.66;5080676;28;20507;-74
2023/07/07 10:52:46;;;;;;;3.85;1.40;;;;;;;28.73;28.00;101821.56;5069011;28;20041;-74
2023/07/07 10:55:32;;;;;;;3.45;1.70;;;;;;;28.76;29.23;101829.41;5075056;28;20044;-74
2023/07/07 10:58:49;;;;;;;5.47;1.67;;;;;;;28.85;28.16;101821.41;5082873;28;20055;-74
2023/07/07 11:01:24;;;;;;;3.35;1.65;;;;;;;28.87;28.57;101825.72;5072558;28;20049;-74
2023/07/07 11:04:38;;;;;;;3.75;1.83;;;;;;;28.93;28.14;101816.16;5077817;28;20735;-73
2023/07/07 11:07:41;;;;;;;4.25;1.80;;;;;;;29.00;26.93;101803.69;5057498;28;20041;-73
2023/07/07 11:10:49;;;;;;;4.20;1.80;;;;;;;28.99;25.66;101812.84;5080535;28;20051;-73
2023/07/07 11:13:29;;;;;;;2.95;1.90;;;;;;;29.03;25.79;101800.72;5055997;28;20037;-73
2023/07/07 11:16:23;;;;;;;3.97;1.58;;;;;;;29.11;26.55;101805.38;5079547;28;20126;-73
2023/07/07 11:19:04;;;;;;;2.72;1.65;;;;;;;29.18;27.22;101811.97;5081514;28;20468;-74
2023/07/07 11:21:58;;;;;;;2.95;1.70;;;;;;;29.36;27.26;101811.22;5081155;28;20036;-73
2023/07/07 11:24:40;;;;;;;4.60;1.80;;;;;;;29.49;26.97;101809.06;5066085;28;20131;-73
2023/07/07 11:27:41;;;;;;;2.75;1.33;;;;;;;29.64;26.37;101805.84;5068214;28;20602;-73
2023/07/07 11:30:10;;;;;;;3.95;1.40;;;;;;;29.71;27.01;101802.38;5062057;28;20052;-74
2023/07/07 11:33:01;;;;;;;4.47;1.88;;;;;;;29.87;26.71;101801.75;5078175;28;20562;-74
2023/07/07 11:36:12;;;;;;;5.40;2.00;;;;;;;29.99;25.69;101802.41;5070634;28;20083;-73
2023/07/07 11:39:26;;;;;;;3.58;1.63;;;;;;;30.02;25.61;101799.41;5071103;28;20531;-73
2023/07/07 11:42:21;;;;;;;3.30;1.52;;;;;;;30.09;26.53;101801.50;5064905;28;20045;-73
2023/07/07 11:45:08;;;;;;;5.18;1.95;;;;;;;30.11;26.59;101789.50;5074928;28;20413;-75
2023/07/07 11:47:50;;;;;;;2.80;1.45;;;;;;;30.25;27.30;101784.53;5082708;28;20610;-74
2023/07/07 11:50:46;;;;;;;3.72;1.55;;;;;;;30.42;27.62;101782.81;5072970;28;20100;-74
2023/07/07 11:53:49;;;;;;;5.93;1.67;;;;;;;30.62;27.16;101775.41;5060775;28;20408;-73
2023/07/07 11:56:46;;;;;;;6.70;1.70;;;;;;;30.66;26.20;101776.78;5076440;28;20048;-73